首页
METAR-TAF:

METAR-TAF

机场 :

阿根廷港, 福克兰群岛

纬度: 51-49S, 经度: 058-27W, 海拔: 74米

当前天气观测

该预报发布于45分钟前的01:50 UTC
风速13节,风向南转西南
温度 3°C
湿度 81%
气压 1010 hPa
能见度10公里或以上
散云层高于2000英尺
多云层高于3600英尺

METAR: EGYP 220150Z 21013KT 9999 SCT020 BKN036 03/M00 Q1010 WHT

时间: 23:35 (02:35 UTC)

预报

该预报发布于4小时和20分钟前的22:15 UTC
预报有效从22日的 00点(UTC)到 22日的 18点(UTC)
风速15节,风向南转西南
能见度10公里或以上
多云层高于2500英尺
短暂存在
从 22日的 00点(UTC)到 22日的 18点(UTC)
多云层高于2000英尺
几率 30% :
短暂存在
从 22日的 00点(UTC)到 22日的 10点(UTC)
能見度: 3000
散云层高于500英尺
多云层高于1400英尺
小阵雨, 雪
成为
从 22日的 06点(UTC)到 22日的 09点(UTC)
风速22节,风向西南,有时为32节阵风
短暂存在
从 22日的 10点(UTC)到 22日的 18点(UTC)
能見度: 6000
散云层高于1200英尺
阵雨

TAF: EGYP 212215Z 2200/2218 21015KT 9999 BKN025 TEMPO 2200/2218 BKN020 PROB30 TEMPO 2200/2210 3000 -SHRASN SCT005 BKN014 BECMG 2206/2209 22022G32KT TEMPO 2210/2218 6000 SHRA SCT012

超过4000个机场的气象观测和天气预报(METAR&TAF报告)。

可查询的气象台以黄色和红色小点在地图上表示。

将鼠标移到小点上方,可查看气象台名称。

然后点击查看天气观测和预报。

如需切换地图:点击带黑十字的绿色按钮放大地图;点击带横线的绿色按钮缩小地图;或者点击绿色箭头查看邻近地区的地图。


METAR-TAF: